createdAt,value
2022-10-11T00:02:05.435Z,12.23
2022-10-11T00:04:32.268Z,12.68
2022-10-11T00:06:59.190Z,13.18
2022-10-11T00:09:26.069Z,13.10
2022-10-11T00:11:56.231Z,15.00
2022-10-11T00:14:24.151Z,12.68
2022-10-11T00:16:50.989Z,12.13
2022-10-11T00:19:17.908Z,10.50
2022-10-11T00:21:44.991Z,11.32
2022-10-11T00:24:12.141Z,14.07
2022-10-11T00:26:42.085Z,12.90
2022-10-11T00:29:12.669Z,14.38
2022-10-11T00:31:40.029Z,13.35
2022-10-11T00:34:07.672Z,13.13
2022-10-11T00:36:34.608Z,11.57
2022-10-11T00:39:01.469Z,13.20
2022-10-11T00:41:28.410Z,15.07
2022-10-11T00:44:19.503Z,14.85
2022-10-11T00:46:55.877Z,13.45
2022-10-11T00:49:25.867Z,12.10
2022-10-11T00:51:55.369Z,14.13
2022-10-11T00:54:24.031Z,12.70
2022-10-11T00:56:54.090Z,14.45
2022-10-11T00:59:26.829Z,13.10
2022-10-11T01:01:53.810Z,13.60
2022-10-11T01:04:20.729Z,12.57
2022-10-11T01:06:47.851Z,13.20
2022-10-11T01:09:14.790Z,14.48
2022-10-11T01:11:41.899Z,15.18
2022-10-11T01:14:29.210Z,13.87
2022-10-11T01:16:56.010Z,14.82
2022-10-11T01:19:44.621Z,14.02
2022-10-11T01:22:14.048Z,16.90
2022-10-11T01:25:01.911Z,16.00
2022-10-11T01:27:47.348Z,15.30
2022-10-11T01:30:21.430Z,15.45
2022-10-11T01:33:03.468Z,15.68
2022-10-11T01:35:42.329Z,15.10
2022-10-11T01:38:14.730Z,15.95
2022-10-11T01:41:09.330Z,15.93
2022-10-11T01:43:36.628Z,14.85
2022-10-11T01:46:03.918Z,16.58
2022-10-11T01:48:31.087Z,17.67
2022-10-11T01:50:58.872Z,15.45
2022-10-11T01:53:49.067Z,16.90
2022-10-11T01:56:39.570Z,16.17
2022-10-11T01:59:20.023Z,19.05
2022-10-11T02:02:06.229Z,15.13
2022-10-11T02:04:33.988Z,15.98
2022-10-11T02:07:23.347Z,17.13
2022-10-11T02:09:54.809Z,16.25
2022-10-11T02:12:25.988Z,18.20
2022-10-11T02:14:52.892Z,14.93
2022-10-11T02:17:21.649Z,15.00
2022-10-11T02:19:50.828Z,14.37
2022-10-11T02:22:33.673Z,16.27
2022-10-11T02:25:00.986Z,13.32
2022-10-11T02:27:29.991Z,16.42
2022-10-11T02:29:57.021Z,15.40
2022-10-11T02:32:24.249Z,16.70
2022-10-11T02:34:53.936Z,15.77
2022-10-11T02:37:29.689Z,14.40
2022-10-11T02:40:25.492Z,17.17
2022-10-11T02:42:59.610Z,16.25
2022-10-11T02:45:46.929Z,16.53
2022-10-11T02:48:13.829Z,19.10
2022-10-11T02:50:40.710Z,14.98
2022-10-11T02:53:07.868Z,15.95
2022-10-11T02:55:34.950Z,16.55
2022-10-11T02:58:01.866Z,18.60
2022-10-11T03:00:28.831Z,17.13
2022-10-11T03:02:55.729Z,15.88
2022-10-11T03:05:22.550Z,15.57
2022-10-11T03:07:49.448Z,15.90
2022-10-11T03:10:16.429Z,18.77
2022-10-11T03:12:43.386Z,17.73
2022-10-11T03:15:10.715Z,23.08
2022-10-11T03:17:37.770Z,24.83
2022-10-11T03:20:06.128Z,30.92
2022-10-11T03:22:33.008Z,36.10
2022-10-11T03:25:04.117Z,40.03
2022-10-11T03:27:32.773Z,49.47
2022-10-11T03:29:59.748Z,37.95
2022-10-11T03:32:26.630Z,40.08
2022-10-11T03:34:53.487Z,33.57
2022-10-11T03:37:20.407Z,29.02
2022-10-11T03:39:47.210Z,24.20
2022-10-11T03:42:14.187Z,21.17
2022-10-11T03:44:42.255Z,23.65
2022-10-11T03:47:09.211Z,19.20
2022-10-11T03:49:38.798Z,18.02
2022-10-11T03:52:08.189Z,21.67
2022-10-11T03:54:35.048Z,19.45
2022-10-11T03:57:01.869Z,17.50
2022-10-11T03:59:28.808Z,18.10
2022-10-11T04:01:55.705Z,18.83
2022-10-11T04:04:22.669Z,18.30
2022-10-11T04:06:49.471Z,19.63
2022-10-11T04:09:16.310Z,20.15
2022-10-11T04:11:43.190Z,19.77
2022-10-11T04:14:10.009Z,20.48
2022-10-11T04:16:38.859Z,19.75
2022-10-11T04:19:05.867Z,20.25
2022-10-11T04:21:32.730Z,16.98
2022-10-11T04:23:59.588Z,16.33
2022-10-11T04:26:26.427Z,15.18
2022-10-11T04:28:53.469Z,12.98
2022-10-11T04:31:20.374Z,17.55
2022-10-11T04:33:47.308Z,12.27
2022-10-11T04:36:14.170Z,12.37
2022-10-11T04:38:41.149Z,12.43
2022-10-11T04:41:09.166Z,12.57
2022-10-11T04:43:36.268Z,11.82
2022-10-11T04:46:03.329Z,11.80
2022-10-11T04:48:30.270Z,10.70
2022-10-11T04:50:57.248Z,10.23
2022-10-11T04:53:24.429Z,10.25
2022-10-11T04:56:02.065Z,10.20
2022-10-11T04:58:29.928Z,9.25
2022-10-11T05:00:57.024Z,10.33
2022-10-11T05:03:24.271Z,8.73
2022-10-11T05:05:51.191Z,9.75
2022-10-11T05:08:18.029Z,10.98
2022-10-11T05:11:01.067Z,6.97
2022-10-11T05:13:28.490Z,7.63
2022-10-11T05:15:55.330Z,7.53
2022-10-11T05:18:22.690Z,7.55
2022-10-11T05:20:49.796Z,5.10
2022-10-11T05:23:16.712Z,5.95
2022-10-11T05:25:43.627Z,6.60
2022-10-11T05:28:10.583Z,6.25
2022-10-11T05:30:37.492Z,6.55
2022-10-11T05:33:04.433Z,8.15
2022-10-11T05:35:31.351Z,8.65
2022-10-11T05:37:58.173Z,7.77
2022-10-11T05:40:25.050Z,6.38
2022-10-11T05:42:51.929Z,6.22
2022-10-11T05:45:18.809Z,8.48
2022-10-11T05:47:45.728Z,7.75
2022-10-11T05:50:12.610Z,8.13
2022-10-11T05:52:39.510Z,6.38
2022-10-11T05:55:06.910Z,6.65
2022-10-11T05:57:33.811Z,6.65
2022-10-11T06:00:00.690Z,6.45
2022-10-11T06:02:27.571Z,11.60
2022-10-11T06:04:54.409Z,6.18
2022-10-11T06:07:21.207Z,9.02
2022-10-11T06:09:48.132Z,9.80
2022-10-11T06:12:15.348Z,9.68
2022-10-11T06:14:42.293Z,8.70
2022-10-11T06:17:09.149Z,6.13
2022-10-11T06:19:36.070Z,9.75
2022-10-11T06:22:03.013Z,8.27
2022-10-11T06:24:29.889Z,6.75
2022-10-11T06:26:57.072Z,7.67
2022-10-11T06:29:23.927Z,8.10
2022-10-11T06:31:50.836Z,7.20
2022-10-11T06:34:17.690Z,5.82
2022-10-11T06:36:44.569Z,8.00
2022-10-11T06:39:11.812Z,6.97
2022-10-11T06:41:38.709Z,9.50
2022-10-11T06:44:07.190Z,7.35
2022-10-11T06:46:35.588Z,7.68
2022-10-11T06:49:02.509Z,7.00
2022-10-11T06:51:30.273Z,9.43
2022-10-11T06:53:58.166Z,6.78
2022-10-11T06:56:28.912Z,5.85
2022-10-11T06:58:56.410Z,7.03
2022-10-11T07:01:24.079Z,5.35
2022-10-11T07:03:52.149Z,5.87
2022-10-11T07:06:23.571Z,9.68
2022-10-11T07:08:50.513Z,6.72
2022-10-11T07:11:21.829Z,8.40
2022-10-11T07:13:53.530Z,7.53
2022-10-11T07:16:20.708Z,8.23
2022-10-11T07:18:47.911Z,9.35
2022-10-11T07:21:15.727Z,8.63
2022-10-11T07:23:42.891Z,7.70
2022-10-11T07:26:10.768Z,10.20
2022-10-11T07:28:38.044Z,10.40
2022-10-11T07:31:09.744Z,7.43
2022-10-11T07:33:36.733Z,8.85
2022-10-11T07:36:04.780Z,9.52
2022-10-11T07:38:32.548Z,8.82
2022-10-11T07:40:59.489Z,9.10
2022-10-11T07:43:26.381Z,8.30
2022-10-11T07:45:57.170Z,8.10
2022-10-11T07:48:24.009Z,9.18
2022-10-11T07:50:50.870Z,17.42
2022-10-11T07:53:18.109Z,7.90
2022-10-11T07:55:45.010Z,8.32
2022-10-11T07:58:12.609Z,6.95
2022-10-11T08:00:42.285Z,11.55
2022-10-11T08:03:09.669Z,9.68
2022-10-11T08:05:37.695Z,11.13
2022-10-11T08:08:04.809Z,10.05
2022-10-11T08:10:31.751Z,9.00
2022-10-11T08:13:03.383Z,8.63
2022-10-11T08:15:31.214Z,10.10
2022-10-11T08:17:58.007Z,7.93
2022-10-11T08:20:24.886Z,8.00
2022-10-11T08:22:51.710Z,8.05
2022-10-11T08:25:18.627Z,9.15
2022-10-11T08:27:45.443Z,8.48
2022-10-11T08:30:12.963Z,7.43
2022-10-11T08:32:39.842Z,9.38
2022-10-11T08:35:07.288Z,6.97
2022-10-11T08:37:34.154Z,8.02
2022-10-11T08:40:02.754Z,10.52
2022-10-11T08:42:39.007Z,10.63
2022-10-11T08:45:11.745Z,9.95
2022-10-11T08:47:44.388Z,8.30
2022-10-11T08:50:20.253Z,8.10
2022-10-11T08:52:48.834Z,7.70
2022-10-11T08:55:44.137Z,11.10
2022-10-11T08:58:16.531Z,8.82
2022-10-11T09:00:43.430Z,10.13
2022-10-11T09:03:34.880Z,7.90
2022-10-11T09:06:21.825Z,7.72
2022-10-11T09:09:27.241Z,8.37
2022-10-11T09:12:33.569Z,6.95
2022-10-11T09:15:14.920Z,8.98
2022-10-11T09:18:10.439Z,8.93
2022-10-11T09:20:53.254Z,8.77
2022-10-11T09:23:19.971Z,6.63
2022-10-11T09:25:55.269Z,7.40
2022-10-11T09:28:46.103Z,7.78
2022-10-11T09:31:13.000Z,7.47
2022-10-11T09:33:48.077Z,6.97
2022-10-11T09:36:23.022Z,6.27
2022-10-11T09:38:57.594Z,9.60
2022-10-11T09:41:42.840Z,6.95
2022-10-11T09:44:11.969Z,8.13
2022-10-11T09:46:41.344Z,6.68
2022-10-11T09:49:13.691Z,6.67
2022-10-11T09:51:41.920Z,6.35
2022-10-11T09:54:10.943Z,7.72
2022-10-11T09:56:42.716Z,4.85
2022-10-11T09:59:33.880Z,6.35
2022-10-11T10:02:17.115Z,6.63
2022-10-11T10:05:04.392Z,5.93
2022-10-11T10:07:32.410Z,4.95
2022-10-11T10:09:59.573Z,6.40
2022-10-11T10:12:28.436Z,9.77
2022-10-11T10:15:14.187Z,7.23
2022-10-11T10:17:47.741Z,5.80
2022-10-11T10:20:27.388Z,10.95
2022-10-11T10:22:54.262Z,8.63
2022-10-11T10:25:43.663Z,12.68
2022-10-11T10:28:36.907Z,7.40
2022-10-11T10:31:03.744Z,8.85
2022-10-11T10:33:33.640Z,10.20
2022-10-11T10:36:13.401Z,8.07
2022-10-11T10:38:51.994Z,7.43
2022-10-11T10:41:19.252Z,5.23
2022-10-11T10:43:56.092Z,8.52
2022-10-11T10:47:00.070Z,8.50
2022-10-11T10:49:54.106Z,11.48
2022-10-11T10:52:40.013Z,10.23
2022-10-11T10:55:33.007Z,9.53
2022-10-11T10:58:22.306Z,8.82
2022-10-11T11:00:50.561Z,10.70
2022-10-11T11:03:36.462Z,11.35
2022-10-11T11:06:08.573Z,11.70
2022-10-11T11:09:11.418Z,10.27
2022-10-11T11:11:48.172Z,8.95
2022-10-11T11:14:25.058Z,7.97
2022-10-11T11:17:29.237Z,7.78
2022-10-11T11:20:26.575Z,7.30
2022-10-11T11:23:11.722Z,8.63
2022-10-11T11:26:03.401Z,9.75
2022-10-11T11:28:52.125Z,7.90
2022-10-11T11:31:42.225Z,8.10
2022-10-11T11:34:38.085Z,9.93
2022-10-11T11:37:07.202Z,8.57
2022-10-11T11:39:43.538Z,9.60
2022-10-11T11:42:25.360Z,9.85
2022-10-11T11:44:52.180Z,11.48
2022-10-11T11:47:34.852Z,12.18
2022-10-11T11:50:15.324Z,9.10
2022-10-11T11:52:44.899Z,7.45
2022-10-11T11:55:18.914Z,7.95
2022-10-11T11:57:59.437Z,7.15
2022-10-11T12:01:00.866Z,10.57
2022-10-11T12:03:30.744Z,8.33
2022-10-11T12:06:20.660Z,8.93
2022-10-11T12:08:48.933Z,10.85
2022-10-11T12:11:21.111Z,8.48
2022-10-11T12:13:48.116Z,8.77
2022-10-11T12:16:18.261Z,9.40
2022-10-11T12:18:54.232Z,9.27
2022-10-11T12:21:40.655Z,9.68
2022-10-11T12:24:19.394Z,7.20
2022-10-11T12:26:47.414Z,7.45
2022-10-11T12:29:17.322Z,9.73
2022-10-11T12:31:46.281Z,6.72
2022-10-11T12:34:19.246Z,7.93
2022-10-11T12:36:50.124Z,7.40
2022-10-11T12:39:19.832Z,7.30
2022-10-11T12:41:50.013Z,9.30
2022-10-11T12:44:27.307Z,8.35
2022-10-11T12:46:54.030Z,8.10
2022-10-11T12:49:45.231Z,10.55
2022-10-11T12:52:18.183Z,7.30
2022-10-11T12:54:54.610Z,10.00
2022-10-11T12:57:36.334Z,7.43
2022-10-11T13:00:21.749Z,11.05
2022-10-11T13:02:49.228Z,8.18
2022-10-11T13:05:19.008Z,8.10
2022-10-11T13:07:46.649Z,8.07
2022-10-11T13:10:27.983Z,7.43
2022-10-11T13:12:55.165Z,7.88
2022-10-11T13:15:22.593Z,13.88
2022-10-11T13:17:51.809Z,6.55
2022-10-11T13:20:19.929Z,8.43
2022-10-11T13:22:48.705Z,8.18
2022-10-11T13:25:21.347Z,8.80
2022-10-11T13:27:48.470Z,7.40
2022-10-11T13:30:28.485Z,7.78
2022-10-11T13:32:55.407Z,8.33
2022-10-11T13:35:35.788Z,6.95
2022-10-11T13:38:02.970Z,5.95
2022-10-11T13:40:29.830Z,7.22
2022-10-11T13:42:56.725Z,9.73
2022-10-11T13:45:25.169Z,8.80
2022-10-11T13:47:53.149Z,7.65
2022-10-11T13:50:37.145Z,8.32
2022-10-11T13:53:09.933Z,10.15
2022-10-11T13:55:55.733Z,8.10
2022-10-11T13:58:30.392Z,10.17
2022-10-11T14:00:59.000Z,9.20
2022-10-11T14:03:45.748Z,6.45
2022-10-11T14:06:12.567Z,7.22
2022-10-11T14:08:42.353Z,7.20
2022-10-11T14:11:10.509Z,8.70
2022-10-11T14:13:38.290Z,11.60
2022-10-11T14:16:10.003Z,6.50
2022-10-11T14:18:58.348Z,7.82
2022-10-11T14:21:45.348Z,9.07
2022-10-11T14:24:12.327Z,7.87
2022-10-11T14:26:44.166Z,8.18
2022-10-11T14:29:19.010Z,7.05
2022-10-11T14:31:45.931Z,7.68
2022-10-11T14:34:20.368Z,5.88
2022-10-11T14:36:47.469Z,8.73
2022-10-11T14:39:18.491Z,6.85
2022-10-11T14:41:45.387Z,8.20
2022-10-11T14:44:12.485Z,8.88
2022-10-11T14:46:40.973Z,8.02
2022-10-11T14:49:18.009Z,7.37
2022-10-11T14:51:45.783Z,9.18
2022-10-11T14:54:13.307Z,8.38
2022-10-11T14:56:40.149Z,9.95
2022-10-11T14:59:06.969Z,7.80
2022-10-11T15:01:33.944Z,6.17
2022-10-11T15:04:00.885Z,7.35
2022-10-11T15:06:32.145Z,7.18
2022-10-11T15:08:59.070Z,10.73
2022-10-11T15:11:25.933Z,7.65
2022-10-11T15:13:53.027Z,8.90
2022-10-11T15:16:20.550Z,10.57
2022-10-11T15:18:52.028Z,8.15
2022-10-11T15:21:20.174Z,8.43
2022-10-11T15:23:47.587Z,9.68
2022-10-11T15:26:27.109Z,10.60
2022-10-11T15:28:55.379Z,11.07
2022-10-11T15:31:22.498Z,9.63
2022-10-11T15:33:49.655Z,9.07
2022-10-11T15:36:18.505Z,10.30
2022-10-11T15:38:45.579Z,11.63
2022-10-11T15:41:13.930Z,8.73
2022-10-11T15:43:40.777Z,8.13
2022-10-11T15:46:08.509Z,10.10
2022-10-11T15:48:35.853Z,9.18
2022-10-11T15:51:02.669Z,8.90
2022-10-11T15:53:31.273Z,8.43
2022-10-11T15:55:59.810Z,11.00
2022-10-11T15:58:31.712Z,8.68
2022-10-11T16:01:00.551Z,10.25
2022-10-11T16:03:28.649Z,8.23
2022-10-11T16:05:55.787Z,8.27
2022-10-11T16:08:22.747Z,8.13
2022-10-11T16:10:49.769Z,14.80
2022-10-11T16:13:17.113Z,10.55
2022-10-11T16:15:44.404Z,10.50
2022-10-11T16:18:13.491Z,9.15
2022-10-11T16:20:45.192Z,9.50
2022-10-11T16:23:12.489Z,10.50
2022-10-11T16:25:39.428Z,10.77
2022-10-11T16:28:08.146Z,10.97
2022-10-11T16:30:38.427Z,13.48
2022-10-11T16:33:05.351Z,10.35
2022-10-11T16:35:32.737Z,11.23
2022-10-11T16:38:00.956Z,10.45
2022-10-11T16:40:29.925Z,13.27
2022-10-11T16:42:56.866Z,9.05
2022-10-11T16:45:23.726Z,11.32
2022-10-11T16:47:50.696Z,10.40
2022-10-11T16:50:17.550Z,9.85
2022-10-11T16:52:44.543Z,11.73
2022-10-11T16:55:11.669Z,11.50
2022-10-11T16:57:38.530Z,11.52
2022-10-11T17:00:07.151Z,11.27
2022-10-11T17:02:34.073Z,13.32
2022-10-11T17:05:01.032Z,11.83
2022-10-11T17:07:27.971Z,8.75
2022-10-11T17:09:54.992Z,12.73
2022-10-11T17:12:23.067Z,9.82
2022-10-11T17:14:50.049Z,9.98
2022-10-11T17:17:17.207Z,9.90
2022-10-11T17:19:45.503Z,9.32
2022-10-11T17:22:13.645Z,9.02
2022-10-11T17:24:40.550Z,10.02
2022-10-11T17:27:07.510Z,11.68
2022-10-11T17:29:34.351Z,10.30
2022-10-11T17:32:01.519Z,12.65
2022-10-11T17:34:28.489Z,7.35
2022-10-11T17:36:55.389Z,8.75
2022-10-11T17:39:22.967Z,11.38
2022-10-11T17:41:50.006Z,11.80
2022-10-11T17:44:20.055Z,12.80
2022-10-11T17:46:47.085Z,12.13
2022-10-11T17:49:14.171Z,8.43
2022-10-11T17:51:41.336Z,10.20
2022-10-11T17:54:12.509Z,8.63
2022-10-11T17:56:40.510Z,12.65
2022-10-11T17:59:07.829Z,11.15
2022-10-11T18:01:34.883Z,10.02
2022-10-11T18:04:03.575Z,9.25
2022-10-11T18:06:31.987Z,10.17
2022-10-11T18:09:02.477Z,8.73
2022-10-11T18:11:29.391Z,10.25
2022-10-11T18:13:56.227Z,9.73
2022-10-11T18:16:24.635Z,10.23
2022-10-11T18:18:51.511Z,9.27
2022-10-11T18:21:18.888Z,7.82
2022-10-11T18:23:46.070Z,10.40
2022-10-11T18:26:17.751Z,8.60
2022-10-11T18:28:45.122Z,9.93
2022-10-11T18:31:15.094Z,7.83
2022-10-11T18:33:42.356Z,8.90
2022-10-11T18:36:10.531Z,8.20
2022-10-11T18:38:38.225Z,11.95
2022-10-11T18:41:06.888Z,7.20
2022-10-11T18:43:34.486Z,10.90
2022-10-11T18:46:08.587Z,8.93
2022-10-11T18:48:35.569Z,10.40
2022-10-11T18:51:06.312Z,10.63
2022-10-11T18:53:36.814Z,8.50
2022-10-11T18:56:05.437Z,7.43
2022-10-11T18:58:33.231Z,7.38
2022-10-11T19:01:10.324Z,11.23
2022-10-11T19:03:37.425Z,11.50
2022-10-11T19:06:05.820Z,9.13
2022-10-11T19:08:33.089Z,9.70
2022-10-11T19:11:08.721Z,9.63
2022-10-11T19:13:35.856Z,9.98
2022-10-11T19:16:08.020Z,11.75
2022-10-11T19:18:35.158Z,9.55
2022-10-11T19:21:06.706Z,10.57
2022-10-11T19:23:39.543Z,15.57
2022-10-11T19:26:08.009Z,9.13
2022-10-11T19:28:35.207Z,7.80
2022-10-11T19:31:04.019Z,11.25
2022-10-11T19:33:32.363Z,10.67
2022-10-11T19:36:00.032Z,10.35
2022-10-11T19:38:26.912Z,9.10
2022-10-11T19:40:54.023Z,10.15
2022-10-11T19:43:21.112Z,9.27
2022-10-11T19:45:48.059Z,11.90
2022-10-11T19:48:14.889Z,9.93
2022-10-11T19:50:41.761Z,9.77
2022-10-11T19:53:08.622Z,14.85
2022-10-11T19:55:35.476Z,7.07
2022-10-11T19:58:08.088Z,12.63
2022-10-11T20:00:35.165Z,7.90
2022-10-11T20:03:02.067Z,12.73
2022-10-11T20:05:28.900Z,9.68
2022-10-11T20:07:55.673Z,9.88
2022-10-11T20:10:22.500Z,9.60
2022-10-11T20:12:49.403Z,7.38
2022-10-11T20:15:16.321Z,9.32
2022-10-11T20:17:48.883Z,10.48
2022-10-11T20:20:16.945Z,12.20
2022-10-11T20:22:43.848Z,11.53
2022-10-11T20:25:10.803Z,8.95
2022-10-11T20:27:37.941Z,9.98
2022-10-11T20:30:05.444Z,10.30
2022-10-11T20:32:32.331Z,7.93
2022-10-11T20:34:59.183Z,6.77
2022-10-11T20:37:26.210Z,7.40
2022-10-11T20:39:53.030Z,7.82
2022-10-11T20:42:19.862Z,6.65
2022-10-11T20:44:48.289Z,8.07
2022-10-11T20:47:15.282Z,8.53
2022-10-11T20:49:42.162Z,8.35
2022-10-11T20:52:09.041Z,8.00
2022-10-11T20:54:35.904Z,7.60
2022-10-11T20:57:03.093Z,8.55
2022-10-11T20:59:29.979Z,10.80
2022-10-11T21:01:57.466Z,9.88
2022-10-11T21:04:24.343Z,8.23
2022-10-11T21:06:51.144Z,8.35
2022-10-11T21:09:18.045Z,9.55
2022-10-11T21:11:45.026Z,11.03
2022-10-11T21:14:11.862Z,8.43
2022-10-11T21:16:38.727Z,13.05
2022-10-11T21:19:06.323Z,9.85
2022-10-11T21:21:33.244Z,10.57
2022-10-11T21:24:01.036Z,11.00
2022-10-11T21:26:28.044Z,11.73
2022-10-11T21:28:55.023Z,9.88
2022-10-11T21:31:22.187Z,7.70
2022-10-11T21:33:49.047Z,10.48
2022-10-11T21:36:16.610Z,7.03
2022-10-11T21:38:43.664Z,9.25
2022-10-11T21:41:12.441Z,8.65
2022-10-11T21:43:39.302Z,8.40
2022-10-11T21:46:19.584Z,8.50
2022-10-11T21:48:46.723Z,7.03
2022-10-11T21:51:33.723Z,6.18
2022-10-11T21:54:00.908Z,7.68
2022-10-11T21:56:28.325Z,9.57
2022-10-11T21:58:55.300Z,10.38
2022-10-11T22:01:22.192Z,9.10
2022-10-11T22:03:49.125Z,8.10
2022-10-11T22:06:16.201Z,10.20
2022-10-11T22:08:43.081Z,7.47
2022-10-11T22:11:09.961Z,7.82
2022-10-11T22:13:36.883Z,9.93
2022-10-11T22:16:08.242Z,8.13
2022-10-11T22:18:35.082Z,7.68
2022-10-11T22:21:13.525Z,6.15
2022-10-11T22:23:41.146Z,7.47
2022-10-11T22:26:13.429Z,8.63
2022-10-11T22:28:40.725Z,8.73
2022-10-11T22:31:08.263Z,9.13
2022-10-11T22:33:35.421Z,7.53
2022-10-11T22:36:03.560Z,7.88
2022-10-11T22:38:30.462Z,5.57
2022-10-11T22:41:00.161Z,7.22
2022-10-11T22:43:26.985Z,9.10
2022-10-11T22:45:53.861Z,6.72
2022-10-11T22:48:20.664Z,5.68
2022-10-11T22:50:47.582Z,7.57
2022-10-11T22:53:14.723Z,8.35
2022-10-11T22:55:41.584Z,6.78
2022-10-11T22:58:08.504Z,9.63
2022-10-11T23:00:35.420Z,6.13
2022-10-11T23:03:02.282Z,6.33
2022-10-11T23:05:29.141Z,7.25
2022-10-11T23:07:56.102Z,5.97
2022-10-11T23:10:22.923Z,6.07
2022-10-11T23:12:49.844Z,5.38
2022-10-11T23:15:16.883Z,5.67
2022-10-11T23:17:43.723Z,5.53
2022-10-11T23:20:11.122Z,5.18
2022-10-11T23:22:38.023Z,6.32
2022-10-11T23:25:05.663Z,7.70
2022-10-11T23:27:32.547Z,5.07
2022-10-11T23:29:59.384Z,5.30
2022-10-11T23:32:26.229Z,4.45
2022-10-11T23:34:53.142Z,6.00
2022-10-11T23:37:20.163Z,4.72
2022-10-11T23:39:47.022Z,4.53
2022-10-11T23:42:13.861Z,6.82
2022-10-11T23:44:40.720Z,5.90
2022-10-11T23:47:07.624Z,7.55
2022-10-11T23:49:34.484Z,10.82
2022-10-11T23:52:01.414Z,5.77
2022-10-11T23:54:28.262Z,9.50
2022-10-11T23:56:55.124Z,9.10
2022-10-11T23:59:21.962Z,7.80
